sensor_id;sensor_type;location;lat;lon;timestamp;pressure;altitude;pressure_sealevel;temperature;humidity
51926;BME280;37952;51.938;15.480;2022-12-18T00:02:31;101332.17;;;-3.89;79.06
51926;BME280;37952;51.938;15.480;2022-12-18T00:05:35;101339.13;;;-3.93;79.38
51926;BME280;37952;51.938;15.480;2022-12-18T00:08:40;101344.46;;;-3.94;79.27
51926;BME280;37952;51.938;15.480;2022-12-18T00:11:43;101348.44;;;-3.94;79.15
51926;BME280;37952;51.938;15.480;2022-12-18T00:14:46;101354.67;;;-3.85;79.22
51926;BME280;37952;51.938;15.480;2022-12-18T00:17:51;101362.77;;;-3.85;79.25
51926;BME280;37952;51.938;15.480;2022-12-18T00:21:01;101364.40;;;-3.89;79.07
51926;BME280;37952;51.938;15.480;2022-12-18T00:24:05;101368.19;;;-3.89;79.41
51926;BME280;37952;51.938;15.480;2022-12-18T00:27:08;101369.23;;;-3.88;78.93
51926;BME280;37952;51.938;15.480;2022-12-18T00:30:12;101367.23;;;-3.85;79.06
51926;BME280;37952;51.938;15.480;2022-12-18T00:33:28;101367.52;;;-3.81;78.93
51926;BME280;37952;51.938;15.480;2022-12-18T00:36:33;101372.32;;;-3.75;78.87
51926;BME280;37952;51.938;15.480;2022-12-18T00:39:37;101374.88;;;-3.76;79.11
51926;BME280;37952;51.938;15.480;2022-12-18T00:42:40;101384.02;;;-3.75;78.87
51926;BME280;37952;51.938;15.480;2022-12-18T00:45:57;101382.84;;;-3.80;78.82
51926;BME280;37952;51.938;15.480;2022-12-18T00:49:01;101394.75;;;-3.80;79.02
51926;BME280;37952;51.938;15.480;2022-12-18T00:52:04;101398.00;;;-3.81;78.95
51926;BME280;37952;51.938;15.480;2022-12-18T00:55:37;101398.09;;;-3.85;79.15
51926;BME280;37952;51.938;15.480;2022-12-18T00:58:41;101404.38;;;-3.81;79.02
51926;BME280;37952;51.938;15.480;2022-12-18T01:01:45;101411.66;;;-3.79;78.98
51926;BME280;37952;51.938;15.480;2022-12-18T01:08:48;101407.46;;;-3.61;78.73
51926;BME280;37952;51.938;15.480;2022-12-18T01:11:50;101415.43;;;-3.59;78.81
51926;BME280;37952;51.938;15.480;2022-12-18T01:14:53;101416.81;;;-3.66;78.86
51926;BME280;37952;51.938;15.480;2022-12-18T01:17:56;101411.52;;;-3.72;78.92
51926;BME280;37952;51.938;15.480;2022-12-18T01:20:59;101414.70;;;-3.75;78.85
51926;BME280;37952;51.938;15.480;2022-12-18T01:24:03;101414.33;;;-3.69;78.98
51926;BME280;37952;51.938;15.480;2022-12-18T01:27:07;101412.08;;;-3.70;78.98
51926;BME280;37952;51.938;15.480;2022-12-18T01:30:10;101409.66;;;-3.70;79.07
51926;BME280;37952;51.938;15.480;2022-12-18T01:33:13;101413.86;;;-3.67;79.01
51926;BME280;37952;51.938;15.480;2022-12-18T01:36:19;101415.60;;;-3.66;78.76
51926;BME280;37952;51.938;15.480;2022-12-18T01:39:23;101417.27;;;-3.61;78.59
51926;BME280;37952;51.938;15.480;2022-12-18T01:42:25;101425.52;;;-3.56;78.75
51926;BME280;37952;51.938;15.480;2022-12-18T01:45:31;101426.53;;;-3.63;78.45
51926;BME280;37952;51.938;15.480;2022-12-18T01:48:36;101428.09;;;-3.56;78.48
51926;BME280;37952;51.938;15.480;2022-12-18T01:51:39;101431.97;;;-3.52;78.40
51926;BME280;37952;51.938;15.480;2022-12-18T01:54:42;101431.45;;;-3.52;78.23
51926;BME280;37952;51.938;15.480;2022-12-18T01:57:46;101434.13;;;-3.55;78.09
51926;BME280;37952;51.938;15.480;2022-12-18T02:00:49;101440.05;;;-3.60;78.00
51926;BME280;37952;51.938;15.480;2022-12-18T02:03:53;101442.31;;;-3.67;78.22
51926;BME280;37952;51.938;15.480;2022-12-18T02:07:20;101429.92;;;-3.72;78.35
51926;BME280;37952;51.938;15.480;2022-12-18T02:10:30;101431.11;;;-3.67;78.18
51926;BME280;37952;51.938;15.480;2022-12-18T02:17:28;101434.17;;;-3.68;78.23
51926;BME280;37952;51.938;15.480;2022-12-18T02:20:36;101427.48;;;-3.60;78.10
51926;BME280;37952;51.938;15.480;2022-12-18T02:23:56;101427.89;;;-3.50;78.07
51926;BME280;37952;51.938;15.480;2022-12-18T02:27:07;101427.88;;;-3.43;78.15
51926;BME280;37952;51.938;15.480;2022-12-18T02:30:13;101430.85;;;-3.41;77.83
51926;BME280;37952;51.938;15.480;2022-12-18T02:33:19;101432.68;;;-3.44;77.76
51926;BME280;37952;51.938;15.480;2022-12-18T02:36:25;101437.42;;;-3.48;77.54
51926;BME280;37952;51.938;15.480;2022-12-18T02:39:29;101435.21;;;-3.53;77.75
51926;BME280;37952;51.938;15.480;2022-12-18T02:42:33;101441.50;;;-3.50;77.76
51926;BME280;37952;51.938;15.480;2022-12-18T02:45:55;101438.91;;;-3.50;77.63
51926;BME280;37952;51.938;15.480;2022-12-18T02:49:10;101438.27;;;-3.55;77.56
51926;BME280;37952;51.938;15.480;2022-12-18T03:00:52;101438.15;;;-3.60;77.66
51926;BME280;37952;51.938;15.480;2022-12-18T03:03:31;101437.08;;;-3.55;77.64
51926;BME280;37952;51.938;15.480;2022-12-18T03:06:41;101442.49;;;-3.52;77.68
51926;BME280;37952;51.938;15.480;2022-12-18T03:09:48;101444.35;;;-3.53;77.16
51926;BME280;37952;51.938;15.480;2022-12-18T03:12:59;101442.77;;;-3.62;77.35
51926;BME280;37952;51.938;15.480;2022-12-18T03:16:05;101441.39;;;-3.62;77.59
51926;BME280;37952;51.938;15.480;2022-12-18T03:19:11;101434.02;;;-3.60;77.53
51926;BME280;37952;51.938;15.480;2022-12-18T03:22:17;101439.00;;;-3.54;77.46
51926;BME280;37952;51.938;15.480;2022-12-18T03:25:23;101441.07;;;-3.47;77.46
51926;BME280;37952;51.938;15.480;2022-12-18T03:28:31;101443.55;;;-3.51;77.45
51926;BME280;37952;51.938;15.480;2022-12-18T03:31:41;101444.50;;;-3.54;77.33
51926;BME280;37952;51.938;15.480;2022-12-18T03:34:50;101445.08;;;-3.51;77.58
51926;BME280;37952;51.938;15.480;2022-12-18T03:37:55;101447.96;;;-3.47;77.49
51926;BME280;37952;51.938;15.480;2022-12-18T03:47:49;101459.48;;;-3.61;77.28
51926;BME280;37952;51.938;15.480;2022-12-18T03:50:59;101461.30;;;-3.64;77.55
51926;BME280;37952;51.938;15.480;2022-12-18T03:58:24;101471.27;;;-3.60;77.17
51926;BME280;37952;51.938;15.480;2022-12-18T04:01:32;101476.09;;;-3.60;77.26
51926;BME280;37952;51.938;15.480;2022-12-18T04:04:38;101479.84;;;-3.62;77.30
51926;BME280;37952;51.938;15.480;2022-12-18T04:07:43;101486.22;;;-3.68;77.24
51926;BME280;37952;51.938;15.480;2022-12-18T04:10:48;101493.93;;;-3.63;77.27
51926;BME280;37952;51.938;15.480;2022-12-18T04:13:57;101490.02;;;-3.61;77.19
51926;BME280;37952;51.938;15.480;2022-12-18T04:17:00;101491.45;;;-3.65;77.13
51926;BME280;37952;51.938;15.480;2022-12-18T04:20:03;101501.09;;;-3.73;76.94
51926;BME280;37952;51.938;15.480;2022-12-18T04:23:06;101499.80;;;-3.69;77.25
51926;BME280;37952;51.938;15.480;2022-12-18T04:26:09;101503.42;;;-3.62;77.22
51926;BME280;37952;51.938;15.480;2022-12-18T04:29:12;101501.37;;;-3.61;77.32
51926;BME280;37952;51.938;15.480;2022-12-18T04:32:15;101497.45;;;-3.59;76.98
51926;BME280;37952;51.938;15.480;2022-12-18T04:35:19;101499.40;;;-3.58;77.19
51926;BME280;37952;51.938;15.480;2022-12-18T04:38:22;101503.57;;;-3.57;77.08
51926;BME280;37952;51.938;15.480;2022-12-18T04:41:24;101503.92;;;-3.56;77.29
51926;BME280;37952;51.938;15.480;2022-12-18T04:44:27;101507.13;;;-3.52;77.20
51926;BME280;37952;51.938;15.480;2022-12-18T04:47:30;101504.39;;;-3.44;77.23
51926;BME280;37952;51.938;15.480;2022-12-18T04:50:59;101509.16;;;-3.46;77.06
51926;BME280;37952;51.938;15.480;2022-12-18T04:54:02;101511.45;;;-3.52;77.07
51926;BME280;37952;51.938;15.480;2022-12-18T04:57:06;101519.69;;;-3.53;76.74
51926;BME280;37952;51.938;15.480;2022-12-18T05:00:10;101528.23;;;-3.56;76.95
51926;BME280;37952;51.938;15.480;2022-12-18T05:03:13;101531.16;;;-3.56;76.94
51926;BME280;37952;51.938;15.480;2022-12-18T05:06:15;101532.15;;;-3.58;76.96
51926;BME280;37952;51.938;15.480;2022-12-18T05:09:18;101536.67;;;-3.63;77.02
51926;BME280;37952;51.938;15.480;2022-12-18T05:12:24;101539.46;;;-3.62;76.69
51926;BME280;37952;51.938;15.480;2022-12-18T05:15:29;101535.02;;;-3.60;77.04
51926;BME280;37952;51.938;15.480;2022-12-18T05:18:32;101542.68;;;-3.57;76.98
51926;BME280;37952;51.938;15.480;2022-12-18T05:21:54;101545.16;;;-3.61;76.88
51926;BME280;37952;51.938;15.480;2022-12-18T05:24:56;101547.66;;;-3.64;76.81
51926;BME280;37952;51.938;15.480;2022-12-18T05:27:59;101555.62;;;-3.63;76.93
51926;BME280;37952;51.938;15.480;2022-12-18T05:31:03;101560.95;;;-3.63;76.79
51926;BME280;37952;51.938;15.480;2022-12-18T05:34:06;101567.05;;;-3.55;77.01
51926;BME280;37952;51.938;15.480;2022-12-18T05:37:09;101565.16;;;-3.61;76.68
51926;BME280;37952;51.938;15.480;2022-12-18T05:40:12;101568.17;;;-3.58;76.87
51926;BME280;37952;51.938;15.480;2022-12-18T05:43:16;101566.28;;;-3.58;76.79
51926;BME280;37952;51.938;15.480;2022-12-18T05:46:23;101569.45;;;-3.62;76.71
51926;BME280;37952;51.938;15.480;2022-12-18T05:49:27;101569.83;;;-3.67;76.81
51926;BME280;37952;51.938;15.480;2022-12-18T05:52:30;101573.80;;;-3.66;76.74
51926;BME280;37952;51.938;15.480;2022-12-18T05:55:38;101576.20;;;-3.67;76.71
51926;BME280;37952;51.938;15.480;2022-12-18T05:58:41;101578.92;;;-3.68;76.90
51926;BME280;37952;51.938;15.480;2022-12-18T06:01:45;101572.59;;;-3.73;76.86
51926;BME280;37952;51.938;15.480;2022-12-18T06:04:48;101563.71;;;-3.76;76.95
51926;BME280;37952;51.938;15.480;2022-12-18T06:07:51;101560.98;;;-3.75;76.80
51926;BME280;37952;51.938;15.480;2022-12-18T06:10:55;101560.67;;;-3.74;76.98
51926;BME280;37952;51.938;15.480;2022-12-18T06:13:58;101563.55;;;-3.76;76.80
51926;BME280;37952;51.938;15.480;2022-12-18T06:17:02;101566.52;;;-3.81;76.71
51926;BME280;37952;51.938;15.480;2022-12-18T06:20:05;101574.39;;;-3.83;76.91
51926;BME280;37952;51.938;15.480;2022-12-18T06:23:12;101590.55;;;-3.84;76.86
51926;BME280;37952;51.938;15.480;2022-12-18T06:26:46;101589.48;;;-3.85;76.87
51926;BME280;37952;51.938;15.480;2022-12-18T06:29:49;101599.40;;;-3.82;77.02
51926;BME280;37952;51.938;15.480;2022-12-18T06:32:52;101605.51;;;-3.85;76.92
51926;BME280;37952;51.938;15.480;2022-12-18T06:36:04;101593.96;;;-3.92;76.94
51926;BME280;37952;51.938;15.480;2022-12-18T06:39:07;101596.90;;;-3.97;76.81
51926;BME280;37952;51.938;15.480;2022-12-18T06:42:10;101598.42;;;-4.03;76.94
51926;BME280;37952;51.938;15.480;2022-12-18T06:45:14;101610.54;;;-4.02;76.83
51926;BME280;37952;51.938;15.480;2022-12-18T06:48:16;101616.90;;;-4.02;77.09
51926;BME280;37952;51.938;15.480;2022-12-18T06:51:21;101622.48;;;-4.00;76.98
51926;BME280;37952;51.938;15.480;2022-12-18T06:54:26;101632.55;;;-4.03;76.91
51926;BME280;37952;51.938;15.480;2022-12-18T06:57:29;101636.54;;;-4.02;76.96
51926;BME280;37952;51.938;15.480;2022-12-18T07:00:34;101635.60;;;-3.99;77.07
51926;BME280;37952;51.938;15.480;2022-12-18T07:03:40;101639.10;;;-3.97;77.15
51926;BME280;37952;51.938;15.480;2022-12-18T07:06:45;101643.45;;;-3.95;76.98
51926;BME280;37952;51.938;15.480;2022-12-18T07:09:49;101651.88;;;-3.96;76.89
51926;BME280;37952;51.938;15.480;2022-12-18T07:12:52;101657.86;;;-4.03;76.82
51926;BME280;37952;51.938;15.480;2022-12-18T07:15:55;101663.71;;;-4.03;76.97
51926;BME280;37952;51.938;15.480;2022-12-18T07:19:06;101664.31;;;-4.01;76.94
51926;BME280;37952;51.938;15.480;2022-12-18T07:22:09;101666.48;;;-4.03;76.98
51926;BME280;37952;51.938;15.480;2022-12-18T07:25:12;101667.75;;;-4.07;77.11
51926;BME280;37952;51.938;15.480;2022-12-18T07:28:15;101673.48;;;-4.05;77.18
51926;BME280;37952;51.938;15.480;2022-12-18T07:31:20;101682.64;;;-4.04;76.97
51926;BME280;37952;51.938;15.480;2022-12-18T07:34:24;101682.98;;;-4.04;77.08
51926;BME280;37952;51.938;15.480;2022-12-18T07:37:29;101676.29;;;-3.98;76.95
51926;BME280;37952;51.938;15.480;2022-12-18T07:40:35;101679.20;;;-3.92;77.24
51926;BME280;37952;51.938;15.480;2022-12-18T07:43:40;101670.55;;;-3.99;76.83
51926;BME280;37952;51.938;15.480;2022-12-18T07:46:44;101679.91;;;-4.03;76.86
51926;BME280;37952;51.938;15.480;2022-12-18T07:49:47;101692.12;;;-4.04;77.05
51926;BME280;37952;51.938;15.480;2022-12-18T07:52:50;101696.33;;;-4.07;76.75
51926;BME280;37952;51.938;15.480;2022-12-18T07:56:02;101694.45;;;-4.07;77.09
51926;BME280;37952;51.938;15.480;2022-12-18T07:59:26;101700.42;;;-4.02;76.97
51926;BME280;37952;51.938;15.480;2022-12-18T08:02:31;101709.73;;;-4.02;77.12
51926;BME280;37952;51.938;15.480;2022-12-18T08:05:34;101709.43;;;-4.01;76.98
51926;BME280;37952;51.938;15.480;2022-12-18T08:08:37;101705.20;;;-3.98;76.98
51926;BME280;37952;51.938;15.480;2022-12-18T08:12:07;101698.43;;;-3.95;77.10
51926;BME280;37952;51.938;15.480;2022-12-18T08:15:10;101698.95;;;-3.94;77.00
51926;BME280;37952;51.938;15.480;2022-12-18T08:18:13;101700.73;;;-3.92;77.01
51926;BME280;37952;51.938;15.480;2022-12-18T08:21:19;101700.45;;;-3.90;77.21
51926;BME280;37952;51.938;15.480;2022-12-18T08:24:23;101699.02;;;-3.92;76.96
51926;BME280;37952;51.938;15.480;2022-12-18T08:27:26;101691.93;;;-3.93;77.05
51926;BME280;37952;51.938;15.480;2022-12-18T08:30:31;101682.83;;;-3.86;77.13
51926;BME280;37952;51.938;15.480;2022-12-18T08:33:36;101687.45;;;-3.81;76.91
51926;BME280;37952;51.938;15.480;2022-12-18T08:36:40;101697.50;;;-3.91;76.65
51926;BME280;37952;51.938;15.480;2022-12-18T08:39:43;101699.39;;;-3.91;77.05
51926;BME280;37952;51.938;15.480;2022-12-18T08:42:46;101690.48;;;-3.89;76.89
51926;BME280;37952;51.938;15.480;2022-12-18T08:46:08;101693.59;;;-3.89;77.00
51926;BME280;37952;51.938;15.480;2022-12-18T08:49:11;101698.80;;;-3.88;77.06
51926;BME280;37952;51.938;15.480;2022-12-18T08:52:14;101695.89;;;-3.82;76.88
51926;BME280;37952;51.938;15.480;2022-12-18T08:55:19;101693.63;;;-3.76;76.65
51926;BME280;37952;51.938;15.480;2022-12-18T08:58:23;101691.02;;;-3.77;76.79
51926;BME280;37952;51.938;15.480;2022-12-18T09:01:26;101684.75;;;-3.79;76.90
51926;BME280;37952;51.938;15.480;2022-12-18T09:04:30;101685.41;;;-3.87;76.60
51926;BME280;37952;51.938;15.480;2022-12-18T09:07:32;101686.02;;;-3.95;76.66
51926;BME280;37952;51.938;15.480;2022-12-18T09:10:44;101687.46;;;-3.92;76.47
51926;BME280;37952;51.938;15.480;2022-12-18T09:13:52;101688.81;;;-3.94;76.74
51926;BME280;37952;51.938;15.480;2022-12-18T09:16:56;101691.30;;;-4.02;76.54
51926;BME280;37952;51.938;15.480;2022-12-18T09:19:59;101693.66;;;-4.04;76.54
51926;BME280;37952;51.938;15.480;2022-12-18T09:23:03;101696.17;;;-4.01;76.66
51926;BME280;37952;51.938;15.480;2022-12-18T09:26:09;101695.19;;;-3.94;76.61
51926;BME280;37952;51.938;15.480;2022-12-18T09:29:12;101700.06;;;-3.91;76.59
51926;BME280;37952;51.938;15.480;2022-12-18T09:32:14;101698.71;;;-3.85;76.78
51926;BME280;37952;51.938;15.480;2022-12-18T09:35:23;101700.37;;;-3.81;76.70
51926;BME280;37952;51.938;15.480;2022-12-18T09:38:26;101691.34;;;-3.78;76.64
51926;BME280;37952;51.938;15.480;2022-12-18T09:41:52;101695.54;;;-3.76;76.62
51926;BME280;37952;51.938;15.480;2022-12-18T09:45:00;101699.79;;;-3.72;76.59
51926;BME280;37952;51.938;15.480;2022-12-18T09:48:04;101712.16;;;-3.68;76.43
51926;BME280;37952;51.938;15.480;2022-12-18T09:51:39;101720.02;;;-3.64;76.67
51926;BME280;37952;51.938;15.480;2022-12-18T09:55:00;101715.23;;;-3.62;76.44
51926;BME280;37952;51.938;15.480;2022-12-18T09:58:11;101712.45;;;-3.63;76.46
51926;BME280;37952;51.938;15.480;2022-12-18T10:01:22;101715.65;;;-3.66;76.18
51926;BME280;37952;51.938;15.480;2022-12-18T10:04:28;101713.62;;;-3.71;76.16
51926;BME280;37952;51.938;15.480;2022-12-18T10:17:50;101701.01;;;-3.71;76.17
51926;BME280;37952;51.938;15.480;2022-12-18T10:21:01;101689.29;;;-3.77;75.83
51926;BME280;37952;51.938;15.480;2022-12-18T10:24:35;101688.67;;;-3.69;76.12
51926;BME280;37952;51.938;15.480;2022-12-18T10:27:43;101693.10;;;-3.59;76.14
51926;BME280;37952;51.938;15.480;2022-12-18T10:30:47;101688.44;;;-3.53;76.19
51926;BME280;37952;51.938;15.480;2022-12-18T10:33:53;101689.69;;;-3.46;75.96
51926;BME280;37952;51.938;15.480;2022-12-18T10:37:00;101688.97;;;-3.40;76.05
51926;BME280;37952;51.938;15.480;2022-12-18T10:40:14;101687.47;;;-3.39;75.86
51926;BME280;37952;51.938;15.480;2022-12-18T10:43:34;101681.00;;;-3.35;76.05
51926;BME280;37952;51.938;15.480;2022-12-18T10:46:37;101684.44;;;-3.29;76.01
51926;BME280;37952;51.938;15.480;2022-12-18T10:49:50;101688.02;;;-3.25;76.19
51926;BME280;37952;51.938;15.480;2022-12-18T10:53:00;101688.21;;;-3.24;75.84
51926;BME280;37952;51.938;15.480;2022-12-18T10:56:07;101688.98;;;-3.27;75.52
51926;BME280;37952;51.938;15.480;2022-12-18T10:59:12;101685.90;;;-3.33;75.56
51926;BME280;37952;51.938;15.480;2022-12-18T11:02:33;101677.61;;;-3.40;75.28
51926;BME280;37952;51.938;15.480;2022-12-18T11:05:37;101684.58;;;-3.49;75.40
51926;BME280;37952;51.938;15.480;2022-12-18T11:08:42;101682.38;;;-3.48;75.23
51926;BME280;37952;51.938;15.480;2022-12-18T11:11:55;101683.86;;;-3.50;75.22
51926;BME280;37952;51.938;15.480;2022-12-18T11:14:59;101676.85;;;-3.48;75.73
51926;BME280;37952;51.938;15.480;2022-12-18T11:18:02;101673.89;;;-3.49;75.25
51926;BME280;37952;51.938;15.480;2022-12-18T11:21:10;101669.71;;;-3.51;75.35
51926;BME280;37952;51.938;15.480;2022-12-18T11:24:21;101663.33;;;-3.57;75.18
51926;BME280;37952;51.938;15.480;2022-12-18T11:27:26;101666.63;;;-3.63;74.90
51926;BME280;37952;51.938;15.480;2022-12-18T11:30:37;101664.30;;;-3.66;74.90
51926;BME280;37952;51.938;15.480;2022-12-18T11:33:43;101664.13;;;-3.65;74.98
51926;BME280;37952;51.938;15.480;2022-12-18T11:37:08;101664.04;;;-3.56;75.55
51926;BME280;37952;51.938;15.480;2022-12-18T11:40:18;101660.70;;;-3.47;75.17
51926;BME280;37952;51.938;15.480;2022-12-18T11:43:34;101668.15;;;-3.46;75.24
51926;BME280;37952;51.938;15.480;2022-12-18T11:46:47;101666.65;;;-3.43;75.27
51926;BME280;37952;51.938;15.480;2022-12-18T11:49:52;101669.65;;;-3.34;75.45
51926;BME280;37952;51.938;15.480;2022-12-18T11:52:58;101661.40;;;-3.33;75.38
51926;BME280;37952;51.938;15.480;2022-12-18T11:56:36;101650.72;;;-3.33;75.10
51926;BME280;37952;51.938;15.480;2022-12-18T12:03:17;101642.29;;;-3.39;74.89
51926;BME280;37952;51.938;15.480;2022-12-18T12:06:33;101641.75;;;-3.39;74.97
51926;BME280;37952;51.938;15.480;2022-12-18T12:16:35;101639.60;;;-3.29;74.96
51926;BME280;37952;51.938;15.480;2022-12-18T12:26:40;101626.68;;;-3.29;75.16
51926;BME280;37952;51.938;15.480;2022-12-18T12:30:08;101628.70;;;-3.31;74.99
51926;BME280;37952;51.938;15.480;2022-12-18T12:40:12;101631.55;;;-3.34;74.18
51926;BME280;37952;51.938;15.480;2022-12-18T12:43:44;101640.00;;;-3.41;74.27
51926;BME280;37952;51.938;15.480;2022-12-18T12:46:56;101634.13;;;-3.47;74.15
51926;BME280;37952;51.938;15.480;2022-12-18T12:50:04;101630.07;;;-3.50;74.38
51926;BME280;37952;51.938;15.480;2022-12-18T12:53:25;101630.80;;;-3.55;74.49
51926;BME280;37952;51.938;15.480;2022-12-18T12:56:37;101635.42;;;-3.63;74.31
51926;BME280;37952;51.938;15.480;2022-12-18T13:03:07;101640.63;;;-3.62;74.44
51926;BME280;37952;51.938;15.480;2022-12-18T13:13:19;101668.27;;;-3.77;74.55
51926;BME280;37952;51.938;15.480;2022-12-18T13:16:26;101671.45;;;-3.68;74.86
51926;BME280;37952;51.938;15.480;2022-12-18T13:19:32;101679.88;;;-3.58;74.51
51926;BME280;37952;51.938;15.480;2022-12-18T13:22:44;101679.48;;;-3.53;74.59
51926;BME280;37952;51.938;15.480;2022-12-18T13:25:52;101692.08;;;-3.52;74.69
51926;BME280;37952;51.938;15.480;2022-12-18T13:28:56;101700.45;;;-3.55;74.53
51926;BME280;37952;51.938;15.480;2022-12-18T13:32:00;101703.21;;;-3.61;74.53
51926;BME280;37952;51.938;15.480;2022-12-18T13:38:35;101704.02;;;-3.63;74.53
51926;BME280;37952;51.938;15.480;2022-12-18T13:41:40;101709.62;;;-3.66;74.37
51926;BME280;37952;51.938;15.480;2022-12-18T13:44:43;101702.23;;;-3.71;74.39
51926;BME280;37952;51.938;15.480;2022-12-18T13:47:47;101709.57;;;-3.74;74.20
51926;BME280;37952;51.938;15.480;2022-12-18T13:50:59;101703.63;;;-3.76;74.50
51926;BME280;37952;51.938;15.480;2022-12-18T13:57:34;101699.06;;;-3.79;74.81
51926;BME280;37952;51.938;15.480;2022-12-18T14:00:42;101701.84;;;-3.78;74.84
51926;BME280;37952;51.938;15.480;2022-12-18T14:03:45;101701.64;;;-3.80;74.60
51926;BME280;37952;51.938;15.480;2022-12-18T14:06:52;101698.95;;;-3.83;74.87
51926;BME280;37952;51.938;15.480;2022-12-18T14:09:59;101694.05;;;-3.86;74.68
51926;BME280;37952;51.938;15.480;2022-12-18T14:13:31;101690.36;;;-3.88;74.79
51926;BME280;37952;51.938;15.480;2022-12-18T14:16:36;101687.09;;;-3.93;74.84
51926;BME280;37952;51.938;15.480;2022-12-18T14:19:44;101681.63;;;-3.97;74.82
51926;BME280;37952;51.938;15.480;2022-12-18T14:22:49;101677.23;;;-4.01;74.66
51926;BME280;37952;51.938;15.480;2022-12-18T14:25:52;101676.39;;;-4.06;74.76
51926;BME280;37952;51.938;15.480;2022-12-18T14:28:56;101668.11;;;-4.12;74.97
51926;BME280;37952;51.938;15.480;2022-12-18T14:32:17;101667.20;;;-4.13;74.81
51926;BME280;37952;51.938;15.480;2022-12-18T14:35:21;101667.80;;;-4.17;74.74
51926;BME280;37952;51.938;15.480;2022-12-18T14:38:35;101673.66;;;-4.22;74.85
51926;BME280;37952;51.938;15.480;2022-12-18T14:41:38;101670.30;;;-4.30;75.00
51926;BME280;37952;51.938;15.480;2022-12-18T14:44:41;101665.17;;;-4.35;74.94
51926;BME280;37952;51.938;15.480;2022-12-18T14:48:09;101663.99;;;-4.39;74.86
51926;BME280;37952;51.938;15.480;2022-12-18T14:51:20;101659.10;;;-4.41;74.82
51926;BME280;37952;51.938;15.480;2022-12-18T14:54:25;101655.45;;;-4.43;75.16
51926;BME280;37952;51.938;15.480;2022-12-18T14:57:34;101651.65;;;-4.43;74.90
51926;BME280;37952;51.938;15.480;2022-12-18T15:00:41;101659.34;;;-4.45;74.95
51926;BME280;37952;51.938;15.480;2022-12-18T15:03:44;101654.89;;;-4.50;74.69
51926;BME280;37952;51.938;15.480;2022-12-18T15:06:48;101644.89;;;-4.56;74.82
51926;BME280;37952;51.938;15.480;2022-12-18T15:13:26;101630.77;;;-4.66;74.76
51926;BME280;37952;51.938;15.480;2022-12-18T15:16:29;101632.44;;;-4.74;74.59
51926;BME280;37952;51.938;15.480;2022-12-18T15:19:37;101630.45;;;-4.77;74.83
51926;BME280;37952;51.938;15.480;2022-12-18T15:22:41;101625.20;;;-4.80;75.02
51926;BME280;37952;51.938;15.480;2022-12-18T15:25:44;101618.30;;;-4.85;75.04
51926;BME280;37952;51.938;15.480;2022-12-18T15:32:10;101613.77;;;-4.87;75.13
51926;BME280;37952;51.938;15.480;2022-12-18T15:35:23;101601.09;;;-4.91;75.29
51926;BME280;37952;51.938;15.480;2022-12-18T15:38:27;101591.73;;;-4.93;75.39
51926;BME280;37952;51.938;15.480;2022-12-18T15:41:32;101582.90;;;-4.95;75.06
51926;BME280;37952;51.938;15.480;2022-12-18T15:44:39;101571.38;;;-4.95;75.49
51926;BME280;37952;51.938;15.480;2022-12-18T15:47:42;101569.49;;;-4.95;75.43
51926;BME280;37952;51.938;15.480;2022-12-18T15:50:45;101571.35;;;-4.96;75.37
51926;BME280;37952;51.938;15.480;2022-12-18T15:53:53;101571.83;;;-4.97;75.68
51926;BME280;37952;51.938;15.480;2022-12-18T15:56:57;101569.52;;;-5.05;75.73
51926;BME280;37952;51.938;15.480;2022-12-18T16:00:18;101573.79;;;-5.06;75.90
51926;BME280;37952;51.938;15.480;2022-12-18T16:03:22;101585.73;;;-5.03;75.69
51926;BME280;37952;51.938;15.480;2022-12-18T16:06:26;101587.85;;;-5.07;75.72
51926;BME280;37952;51.938;15.480;2022-12-18T16:09:49;101592.79;;;-5.09;75.68
51926;BME280;37952;51.938;15.480;2022-12-18T16:12:52;101591.57;;;-5.09;75.70
51926;BME280;37952;51.938;15.480;2022-12-18T16:15:55;101591.84;;;-5.11;75.86
51926;BME280;37952;51.938;15.480;2022-12-18T16:18:58;101603.66;;;-5.12;75.80
51926;BME280;37952;51.938;15.480;2022-12-18T16:22:02;101604.33;;;-5.18;75.53
51926;BME280;37952;51.938;15.480;2022-12-18T16:25:05;101608.05;;;-5.20;75.81
51926;BME280;37952;51.938;15.480;2022-12-18T16:28:08;101618.30;;;-5.22;75.69
51926;BME280;37952;51.938;15.480;2022-12-18T16:31:11;101622.08;;;-5.27;75.85
51926;BME280;37952;51.938;15.480;2022-12-18T16:34:22;101630.25;;;-5.29;75.86
51926;BME280;37952;51.938;15.480;2022-12-18T16:37:30;101620.21;;;-5.31;75.87
51926;BME280;37952;51.938;15.480;2022-12-18T16:40:33;101627.83;;;-5.30;75.78
51926;BME280;37952;51.938;15.480;2022-12-18T16:43:55;101632.83;;;-5.34;75.72
51926;BME280;37952;51.938;15.480;2022-12-18T16:46:58;101629.27;;;-5.37;76.00
51926;BME280;37952;51.938;15.480;2022-12-18T16:50:06;101631.34;;;-5.37;75.80
51926;BME280;37952;51.938;15.480;2022-12-18T16:53:10;101627.86;;;-5.34;76.01
51926;BME280;37952;51.938;15.480;2022-12-18T16:56:13;101627.10;;;-5.36;76.03
51926;BME280;37952;51.938;15.480;2022-12-18T16:59:16;101633.14;;;-5.35;76.09
51926;BME280;37952;51.938;15.480;2022-12-18T17:02:21;101629.59;;;-5.38;75.71
51926;BME280;37952;51.938;15.480;2022-12-18T17:05:27;101629.84;;;-5.36;76.10
51926;BME280;37952;51.938;15.480;2022-12-18T17:08:30;101626.33;;;-5.38;76.07
51926;BME280;37952;51.938;15.480;2022-12-18T17:11:34;101620.34;;;-5.37;75.93
51926;BME280;37952;51.938;15.480;2022-12-18T17:14:39;101605.05;;;-5.37;76.02
51926;BME280;37952;51.938;15.480;2022-12-18T17:17:42;101595.83;;;-5.45;75.91
51926;BME280;37952;51.938;15.480;2022-12-18T17:20:45;101600.59;;;-5.52;75.99
51926;BME280;37952;51.938;15.480;2022-12-18T17:23:48;101600.11;;;-5.56;76.08
51926;BME280;37952;51.938;15.480;2022-12-18T17:26:51;101604.79;;;-5.60;76.07
51926;BME280;37952;51.938;15.480;2022-12-18T17:29:54;101601.40;;;-5.63;76.08
51926;BME280;37952;51.938;15.480;2022-12-18T17:32:57;101596.89;;;-5.64;76.09